Flight Track Log - Related Links

Times and Time Zones

All times are in EDT time to prevent confusion due to time zone crossing. See the N6532J flight status page for this flight to view local times or setup timezone preferences in your user account.

Time Position Orientation Groundspeed Altitude Reporting Facility
EDT Latitude Longitude Course Direction KTS MPH feet Rate Location/Type
Wed 12:07:38 PM 43.0486 -73.8039 197° South 86 99 3,100  Level Boston Center
Wed 12:08:26 PM 43.0319 -73.8147 205° Southwest 86 99 3,000  Descending Boston Center
Wed 12:09:27 PM 43.0131 -73.8286 208° Southwest 85 98 3,100 -98 Climbing Boston Center
Wed 12:10:28 PM 42.9878 -73.8450 205° Southwest 91 105 2,800 -397 Descending Boston Center
Wed 12:11:28 PM 42.9625 -73.8614 205° Southwest 100 115 2,300 -496 Descending Boston Center
Wed 12:12:00 PM 42.9869 -73.8875 197° South  Level Estimated
Wed 12:12:29 PM 42.9394 -73.8753 204° Southwest 99 114 1,800  Level Boston Center
Wed 12:13:30 PM 42.9142 -73.8917 205° Southwest 96 110 1,500 -298 Descending Boston Center
Wed 12:14:30 PM 42.8933 -73.9053 206° Southwest 96 110 1,200 -300 Descending Boston Center
Wed 12:16:00 PM 42.9025 -73.9490 286° West  Level FlightAware Approximate
Wed 12:23:00 PM 42.7532 -74.0077 224° Southwest  Level Estimated
Wed 12:24:00 PM 42.7414 -74.0332 238° Southwest  Level FlightAware Approximate
Wed 12:25:00 PM 42.7295 -74.0588 238° Southwest  Level FlightAware Approximate
Wed 12:26:00 PM 42.7177 -74.0843 238° Southwest  Level FlightAware Approximate
Wed 12:27:00 PM 42.7058 -74.1099 238° Southwest  Level FlightAware Approximate
Wed 12:28:00 PM 42.6940 -74.1354 238° Southwest  Level FlightAware Approximate
Wed 12:29:00 PM 42.6821 -74.1609 238° Southwest  Level FlightAware Approximate
Wed 12:30:00 PM 42.6702 -74.1864 238° Southwest  Level FlightAware Approximate
Wed 12:31:00 PM 42.6584 -74.2119 238° Southwest  Level FlightAware Approximate
Wed 12:32:00 PM 42.6465 -74.2374 238° Southwest  Level FlightAware Approximate
Wed 12:33:00 PM 42.6346 -74.2629 238° Southwest  Level FlightAware Approximate
Wed 12:34:00 PM 42.6227 -74.2884 238° Southwest  Level FlightAware Approximate
Wed 12:35:00 PM 42.6108 -74.3138 238° Southwest  Level FlightAware Approximate
Wed 12:36:00 PM 42.5989 -74.3393 238° Southwest  Level FlightAware Approximate
Wed 12:37:00 PM 42.5870 -74.3648 238° Southwest  Level FlightAware Approximate
Wed 12:38:00 PM 42.5751 -74.3902 238° Southwest  Level FlightAware Approximate
Wed 12:39:00 PM 42.5632 -74.4156 238° Southwest  Level FlightAware Approximate
Wed 12:40:00 PM 42.5512 -74.4410 238° Southwest  Level FlightAware Approximate
Wed 12:41:00 PM 42.5393 -74.4665 237° Southwest  Level FlightAware Approximate
Wed 12:42:00 PM 42.5274 -74.4919 237° Southwest  Level FlightAware Approximate
Wed 12:43:00 PM 42.5055 -74.4967 222° Southwest  Level Estimated
Wed 12:44:00 PM 42.4897 -74.5179 225° Southwest  Level FlightAware Approximate
Wed 12:45:00 PM 42.4740 -74.5391 225° Southwest  Level FlightAware Approximate
Wed 12:46:00 PM 42.4582 -74.5603 225° Southwest  Level FlightAware Approximate
Wed 12:47:00 PM 42.4425 -74.5815 225° Southwest  Level FlightAware Approximate
Wed 12:48:00 PM 42.4267 -74.6027 225° Southwest  Level FlightAware Approximate
Wed 12:49:00 PM 42.4109 -74.6238 225° Southwest  Level FlightAware Approximate
Wed 12:50:00 PM 42.3952 -74.6450 225° Southwest  Level FlightAware Approximate
Wed 12:51:00 PM 42.3794 -74.6662 225° Southwest  Level FlightAware Approximate
Wed 12:52:00 PM 42.3637 -74.6873 225° Southwest  Level FlightAware Approximate
Wed 12:53:00 PM 42.3479 -74.7084 225° Southwest  Level FlightAware Approximate
Wed 12:54:00 PM 42.3321 -74.7296 225° Southwest  Level FlightAware Approximate
Wed 12:55:00 PM 42.3163 -74.7507 225° Southwest  Level FlightAware Approximate
Wed 12:56:00 PM 42.3005 -74.7718 225° Southwest  Level FlightAware Approximate
Wed 12:57:00 PM 42.2847 -74.7928 225° Southwest  Level FlightAware Approximate
Wed 12:58:00 PM 42.2689 -74.8139 225° Southwest  Level FlightAware Approximate
Wed 12:59:00 PM 42.2531 -74.8350 225° Southwest  Level FlightAware Approximate
Wed 01:00:00 PM 42.2373 -74.8560 225° Southwest  Level FlightAware Approximate
Wed 01:01:00 PM 42.2215 -74.8771 225° Southwest  Level FlightAware Approximate
Wed 01:02:00 PM 42.2057 -74.8981 225° Southwest  Level FlightAware Approximate
Wed 01:03:00 PM 42.1835 -74.8993 209° Southwest  Level Estimated
Wed 01:04:00 PM 42.1670 -74.9193 222° Southwest  Level FlightAware Approximate
Wed 01:05:00 PM 42.1504 -74.9393 222° Southwest  Level FlightAware Approximate
Wed 01:06:00 PM 42.1283 -74.9400 209° Southwest  Level Estimated
Wed 01:07:00 PM 42.1094 -74.9559 212° Southwest  Level FlightAware Approximate
Wed 01:08:00 PM 42.0906 -74.9717 212° Southwest  Level FlightAware Approximate
Wed 01:09:00 PM 42.0717 -74.9875 212° Southwest  Level FlightAware Approximate
Wed 01:10:00 PM 42.0529 -75.0033 212° Southwest  Level FlightAware Approximate
Wed 01:11:00 PM 42.0340 -75.0191 212° Southwest  Level FlightAware Approximate
Wed 01:12:00 PM 42.0152 -75.0349 212° Southwest  Level FlightAware Approximate
Wed 01:13:00 PM 41.9963 -75.0507 212° Southwest  Level FlightAware Approximate
Wed 01:14:00 PM 41.9775 -75.0664 212° Southwest  Level FlightAware Approximate
Wed 01:15:00 PM 41.9586 -75.0822 212° Southwest  Level FlightAware Approximate
Wed 01:16:00 PM 41.9398 -75.0979 212° Southwest  Level FlightAware Approximate
Wed 01:17:00 PM 41.9209 -75.1136 212° Southwest  Level FlightAware Approximate
Wed 01:18:00 PM 41.9021 -75.1294 212° Southwest  Level FlightAware Approximate
Wed 01:19:00 PM 41.8832 -75.1451 212° Southwest  Level FlightAware Approximate
Wed 01:20:00 PM 41.8643 -75.1608 212° Southwest  Level FlightAware Approximate
Wed 01:21:00 PM 41.8455 -75.1765 212° Southwest  Level FlightAware Approximate
Wed 01:22:00 PM 41.8266 -75.1922 212° Southwest  Level FlightAware Approximate
Wed 01:23:00 PM 41.8077 -75.2079 212° Southwest  Level FlightAware Approximate
Wed 01:24:00 PM 41.7888 -75.2235 212° Southwest  Level FlightAware Approximate
Wed 01:25:00 PM 41.7700 -75.2392 212° Southwest  Level FlightAware Approximate
Wed 01:26:00 PM 41.7479 -75.2361 209° Southwest  Level Estimated
Wed 01:27:00 PM 41.7290 -75.2517 212° Southwest  Level FlightAware Approximate
Wed 01:28:00 PM 41.7101 -75.2673 212° Southwest  Level FlightAware Approximate
Wed 01:29:00 PM 41.6912 -75.2828 212° Southwest  Level FlightAware Approximate
Wed 01:30:00 PM 41.6722 -75.2984 212° Southwest  Level FlightAware Approximate
Wed 01:31:00 PM 41.6533 -75.3139 212° Southwest  Level FlightAware Approximate
Wed 01:32:00 PM 41.6344 -75.3295 212° Southwest  Level FlightAware Approximate
Wed 01:33:00 PM 41.6155 -75.3450 212° Southwest  Level FlightAware Approximate
Wed 01:34:00 PM 41.5965 -75.3605 212° Southwest  Level FlightAware Approximate
Wed 01:35:00 PM 41.5776 -75.3760 212° Southwest  Level FlightAware Approximate
Wed 01:36:00 PM 41.5587 -75.3915 211° Southwest  Level FlightAware Approximate
Wed 01:37:00 PM 41.5398 -75.4070 211° Southwest  Level FlightAware Approximate
Wed 01:38:00 PM 41.5208 -75.4224 211° Southwest  Level FlightAware Approximate
Wed 01:39:00 PM 41.4991 -75.4161 219° Southwest  Level Estimated
Wed 01:40:00 PM 41.4824 -75.4355 221° Southwest  Level FlightAware Approximate
Wed 01:41:00 PM 41.4656 -75.4549 221° Southwest  Level FlightAware Approximate
Wed 01:42:00 PM 41.4488 -75.4742 221° Southwest  Level FlightAware Approximate
Wed 01:43:00 PM 41.4320 -75.4936 221° Southwest  Level FlightAware Approximate
Wed 01:44:00 PM 41.4152 -75.5129 221° Southwest  Level FlightAware Approximate
Wed 01:45:00 PM 41.3984 -75.5323 221° Southwest  Level FlightAware Approximate
Wed 01:46:00 PM 41.3816 -75.5516 221° Southwest  Level FlightAware Approximate
Wed 01:47:00 PM 41.3648 -75.5709 221° Southwest  Level FlightAware Approximate
Wed 01:48:00 PM 41.3479 -75.5902 221° Southwest  Level FlightAware Approximate
Wed 01:49:00 PM 41.3311 -75.6095 221° Southwest  Level FlightAware Approximate
Wed 01:50:00 PM 41.3143 -75.6288 221° Southwest  Level FlightAware Approximate
Wed 01:51:00 PM 41.2936 -75.6182 180° South  Level Estimated
Wed 01:52:00 PM 41.2717 -75.6234 190° South  Level FlightAware Approximate
Wed 01:53:00 PM 41.2499 -75.6285 190° South  Level FlightAware Approximate
Wed 01:54:00 PM 41.2280 -75.6337 190° South  Level FlightAware Approximate
Wed 01:55:00 PM 41.2062 -75.6388 190° South  Level FlightAware Approximate
Wed 01:56:00 PM 41.1843 -75.6440 190° South  Level FlightAware Approximate
Wed 01:57:00 PM 41.1624 -75.6491 190° South  Level FlightAware Approximate
Wed 01:58:00 PM 41.1406 -75.6543 190° South  Level FlightAware Approximate
Wed 01:59:00 PM 41.1187 -75.6594 190° South  Level FlightAware Approximate
Wed 02:00:00 PM 41.0969 -75.6645 190° South  Level FlightAware Approximate
Wed 02:01:00 PM 41.0750 -75.6696 190° South  Level FlightAware Approximate
Wed 02:02:00 PM 41.0552 -75.6563 180° South  Level Estimated
Wed 02:03:00 PM 41.0332 -75.6606 188° South  Level FlightAware Approximate
Wed 02:04:00 PM 41.0113 -75.6649 188° South  Level FlightAware Approximate
Wed 02:05:00 PM 40.9893 -75.6692 188° South  Level FlightAware Approximate
Wed 02:06:00 PM 40.9699 -75.6549 180° South  Level Estimated
Wed 02:07:00 PM 40.9478 -75.6575 185° South  Level FlightAware Approximate
Wed 02:08:00 PM 40.9257 -75.6602 185° South  Level FlightAware Approximate
Wed 02:09:00 PM 40.9036 -75.6629 185° South  Level FlightAware Approximate
Wed 02:10:00 PM 40.8815 -75.6655 185° South  Level FlightAware Approximate
Wed 02:11:00 PM 40.8594 -75.6682 185° South  Level FlightAware Approximate
Wed 02:12:00 PM 40.8373 -75.6709 185° South  Level FlightAware Approximate
Wed 02:13:00 PM 40.8152 -75.6735 185° South  Level FlightAware Approximate
Wed 02:14:00 PM 40.7930 -75.6762 185° South  Level FlightAware Approximate
Wed 02:15:00 PM 40.7750 -75.6591 180° South  Level Estimated
Wed 02:16:00 PM 40.7529 -75.6617 185° South  Level FlightAware Approximate
Wed 02:17:00 PM 40.7308 -75.6642 185° South  Level FlightAware Approximate
Wed 02:18:00 PM 40.7087 -75.6668 185° South  Level FlightAware Approximate
Wed 02:19:00 PM 40.6866 -75.6694 185° South  Level FlightAware Approximate
Wed 02:20:00 PM 40.6645 -75.6720 185° South  Level FlightAware Approximate
Wed 02:21:00 PM 40.6424 -75.6745 185° South  Level FlightAware Approximate
Wed 02:22:00 PM 40.6259 -75.6548 162° South  Level Estimated
Wed 02:23:00 PM 40.6040 -75.6502 171° South  Level FlightAware Approximate
Wed 02:24:00 PM 40.5821 -75.6456 171° South  Level FlightAware Approximate
Wed 02:25:00 PM 40.5602 -75.6409 171° South  Level FlightAware Approximate
Wed 02:26:00 PM 40.5383 -75.6363 171° South  Level FlightAware Approximate
Wed 02:27:00 PM 40.5164 -75.6316 171° South  Level FlightAware Approximate
Wed 02:28:00 PM 40.4945 -75.6270 171° South  Level FlightAware Approximate
Wed 02:29:00 PM 40.4726 -75.6224 171° South  Level FlightAware Approximate
Wed 02:30:00 PM 40.4506 -75.6177 171° South  Level FlightAware Approximate
Wed 02:31:00 PM 40.4287 -75.6131 171° South  Level FlightAware Approximate
Wed 02:32:00 PM 40.4154 -75.5898 162° South  Level Estimated
Wed 02:33:00 PM 40.3935 -75.5850 171° South  Level FlightAware Approximate
Wed 02:34:00 PM 40.3716 -75.5802 171° South  Level FlightAware Approximate
Wed 02:35:00 PM 40.3497 -75.5754 171° South  Level FlightAware Approximate
Wed 02:36:00 PM 40.3278 -75.5706 171° South  Level FlightAware Approximate
Wed 02:37:00 PM 40.3059 -75.5658 171° South  Level FlightAware Approximate
Wed 02:38:00 PM 40.2956 -75.5400 180° South  Level Estimated
Wed 02:39:00 PM 40.2853 -75.5143 108° East  Level Estimated
Wed 02:40:00 PM 40.2639 -75.5065 165° South  Level FlightAware Approximate
Wed 02:41:00 PM 40.2543 -75.4802 110° East  Level Estimated
Wed 02:42:00 PM 40.2386 -75.4598 135° Southeast  Level FlightAware Approximate
Wed 02:43:00 PM 40.2228 -75.4393 135° Southeast  Level FlightAware Approximate
Wed 02:44:00 PM 40.2070 -75.4189 135° Southeast  Level FlightAware Approximate
Wed 02:45:00 PM 40.1988 -75.3919 110° East  Level Estimated
Wed 02:46:00 PM 40.1874 -75.3670 121° Southeast  Level FlightAware Approximate
Wed 02:47:00 PM 40.1759 -75.3421 121° Southeast  Level FlightAware Approximate
Wed 02:48:00 PM 40.1644 -75.3173 121° Southeast  Level FlightAware Approximate
Wed 02:49:00 PM 40.1529 -75.2924 121° Southeast  Level FlightAware Approximate
Wed 02:50:00 PM 40.1460 -75.2648 114° Southeast  Level Estimated
Wed 02:51:00 PM 40.1391 -75.2372 90° East  Level Estimated
Wed 02:52:00 PM 40.1320 -75.2097 109° East  Level FlightAware Approximate
Wed 02:53:00 PM 40.1251 -75.1821 114° Southeast  Level Estimated
Wed 02:54:00 PM 40.1169 -75.1552 112° Southeast  Level FlightAware Approximate
Wed 02:55:00 PM 40.1102 -75.1275 114° Southeast  Level Estimated
Wed 02:56:00 PM 40.1012 -75.1010 114° Southeast  Level FlightAware Approximate
Wed 02:57:00 PM 40.0921 -75.0745 114° Southeast  Level FlightAware Approximate
Wed 02:58:00 PM 40.0831 -75.0480 114° Southeast  Level FlightAware Approximate
Wed 02:59:00 PM 40.0822 -75.0190 114° Southeast  Level Estimated
Wed 03:00:00 PM 40.0819 -75.0106 114° Southeast  Level Estimated
Wed 03:01:00 PM 40.0819 -75.0106 114° Southeast  Level Estimated
Wed 03:02:00 PM 40.0819 -75.0106 114° Southeast  Level Estimated
Wed 03:03:00 PM 40.0819 -75.0106 114° Southeast  Level Estimated
Wed 03:04:00 PM 40.0819 -75.0106 114° Southeast  Level Estimated
Wed 03:05:00 PM 40.0819 -75.0106 114° Southeast  Level Estimated
Wed 03:06:00 PM 40.0819 -75.0106 114° Southeast  Level Estimated
Wed 03:07:00 PM 40.0819 -75.0106 114° Southeast  Level Estimated
Wed 03:08:00 PM 40.0819 -75.0106 114° Southeast  Level Estimated
Wed 03:09:00 PM 40.0819 -75.0106 114° Southeast  Level Estimated
Wed 03:10:00 PM 40.0819 -75.0106 114° Southeast  Level Estimated
Wed 03:11:00 PM 40.0819 -75.0106 114° Southeast  Level Estimated
Wed 03:12:00 PM 40.0819 -75.0106 114° Southeast  Level Estimated
Wed 03:13:00 PM 40.0819 -75.0106 114° Southeast  Level Estimated
Wed 03:14:00 PM 40.0819 -75.0106 114° Southeast  Level Estimated
Wed 03:15:00 PM 40.0819 -75.0106 114° Southeast  Level Estimated

Login

Don't have an account? Register now (free) for customized features, flight alerts, and more!